Time,TemperatureF,DewpointF,PressureIn,WindDirection,WindDirectionDegrees,WindSpeedMPH,WindSpeedGustMPH,Humidity,HourlyPrecipIn,Conditions,Clouds,dailyrainin,SolarRadiationWatts/m^2,SoftwareType,DateUTC
2013-11-20 00:02:00,21.0,18.0,-100.00,ESE,105,0.0,0.0,88,0.00,,,0.00,0.000000,,2013-11-20 05:02:00,
2013-11-20 00:43:00,20.0,18.0,-100.00,West,279,0.0,0.0,90,0.00,,,0.00,0.000000,,2013-11-20 05:43:00,
2013-11-20 00:53:00,20.0,18.0,-100.00,West,279,0.0,0.0,90,0.00,,,0.00,0.000000,,2013-11-20 05:53:00,
2013-11-20 01:02:00,20.0,18.0,-100.00,West,279,0.0,0.0,90,0.00,,,0.00,0.000000,,2013-11-20 06:02:00,
2013-11-20 01:42:00,20.0,18.0,-100.00,ENE,68,1.0,2.0,90,0.00,,,0.00,0.000000,,2013-11-20 06:42:00,
2013-11-20 01:52:00,20.0,18.0,-100.00,ENE,68,1.0,2.0,90,0.00,,,0.00,0.000000,,2013-11-20 06:52:00,
2013-11-20 02:01:00,20.0,18.0,-100.00,ENE,68,1.0,2.0,90,0.00,,,0.00,0.000000,,2013-11-20 07:01:00,
2013-11-20 02:42:00,20.0,17.0,-100.00,East,93,1.0,2.0,89,0.00,,,0.00,0.000000,,2013-11-20 07:42:00,
2013-11-20 02:52:00,20.0,17.0,-100.00,East,93,1.0,2.0,89,0.00,,,0.00,0.000000,,2013-11-20 07:52:00,
2013-11-20 03:02:00,20.0,17.0,-100.00,East,93,1.0,2.0,89,0.00,,,0.00,0.000000,,2013-11-20 08:02:00,
2013-11-20 03:42:00,20.0,18.0,-100.00,ESE,110,1.0,2.0,90,0.00,,,0.00,0.000000,,2013-11-20 08:42:00,
2013-11-20 03:52:00,20.0,18.0,-100.00,ESE,110,1.0,2.0,90,0.00,,,0.00,0.000000,,2013-11-20 08:52:00,
2013-11-20 04:02:00,20.0,18.0,-100.00,ESE,110,1.0,2.0,90,0.00,,,0.00,0.000000,,2013-11-20 09:02:00,
2013-11-20 04:44:00,21.0,18.0,-100.00,East,79,3.0,4.0,89,0.00,,,0.00,0.000000,,2013-11-20 09:44:00,
2013-11-20 04:54:00,21.0,18.0,-100.00,East,79,3.0,4.0,89,0.00,,,0.00,0.000000,,2013-11-20 09:54:00,
2013-11-20 05:03:00,21.0,18.0,-100.00,East,79,3.0,4.0,89,0.00,,,0.00,0.000000,,2013-11-20 10:03:00,
2013-11-20 05:43:00,21.0,17.0,-100.00,East,84,3.0,5.0,85,0.00,,,0.00,0.000000,,2013-11-20 10:43:00,
2013-11-20 05:53:00,21.0,17.0,-100.00,East,84,3.0,5.0,85,0.00,,,0.00,0.000000,,2013-11-20 10:53:00,
2013-11-20 06:03:00,21.0,17.0,-100.00,East,84,3.0,5.0,85,0.00,,,0.00,0.000000,,2013-11-20 11:03:00,
2013-11-20 06:43:00,21.0,17.0,-100.00,ENE,70,4.0,5.0,85,0.00,,,0.00,0.000000,,2013-11-20 11:43:00,
2013-11-20 06:52:00,21.0,17.0,-100.00,ENE,70,4.0,5.0,85,0.00,,,0.00,0.000000,,2013-11-20 11:52:00,
2013-11-20 07:02:00,21.0,17.0,-100.00,ENE,70,4.0,5.0,85,0.00,,,0.00,0.000000,,2013-11-20 12:02:00,
2013-11-20 07:42:00,21.0,17.0,-100.00,ENE,78,4.0,5.0,84,0.00,,,0.00,0.000000,,2013-11-20 12:42:00,
2013-11-20 07:52:00,21.0,17.0,-100.00,ENE,78,4.0,5.0,84,0.00,,,0.00,0.000000,,2013-11-20 12:52:00,
2013-11-20 08:02:00,21.0,17.0,-100.00,ENE,78,4.0,5.0,84,0.00,,,0.00,0.000000,,2013-11-20 13:02:00,
2013-11-20 08:42:00,23.0,17.0,-100.00,East,92,3.0,5.0,78,0.00,,,0.00,25.000000,,2013-11-20 13:42:00,
2013-11-20 08:52:00,23.0,17.0,-100.00,East,92,3.0,5.0,78,0.00,,,0.00,25.000000,,2013-11-20 13:52:00,
2013-11-20 09:02:00,23.0,17.0,-100.00,East,92,3.0,5.0,78,0.00,,,0.00,25.000000,,2013-11-20 14:02:00,
2013-11-20 09:42:00,28.0,16.0,-100.00,East,95,5.0,10.0,61,0.00,,,0.00,234.000000,,2013-11-20 14:42:00,
2013-11-20 09:52:00,28.0,16.0,-100.00,East,95,5.0,10.0,61,0.00,,,0.00,234.000000,,2013-11-20 14:52:00,
2013-11-20 10:02:00,28.0,16.0,-100.00,East,95,5.0,10.0,61,0.00,,,0.00,234.000000,,2013-11-20 15:02:00,
2013-11-20 10:43:00,34.0,16.0,-100.00,East,98,5.0,8.0,47,0.00,,,0.00,387.000000,,2013-11-20 15:43:00,
2013-11-20 10:54:00,34.0,16.0,-100.00,East,98,5.0,8.0,47,0.00,,,0.00,387.000000,,2013-11-20 15:54:00,
2013-11-20 11:03:00,34.0,16.0,-100.00,East,98,5.0,8.0,47,0.00,,,0.00,387.000000,,2013-11-20 16:03:00,
2013-11-20 11:43:00,38.0,12.0,-100.00,ESE,112,6.0,11.0,34,0.00,,,0.00,512.000000,,2013-11-20 16:43:00,
2013-11-20 11:52:00,38.0,12.0,-100.00,ESE,112,6.0,11.0,34,0.00,,,0.00,512.000000,,2013-11-20 16:52:00,
2013-11-20 12:02:00,38.0,12.0,-100.00,ESE,112,6.0,11.0,34,0.00,,,0.00,512.000000,,2013-11-20 17:02:00,
2013-11-20 12:42:00,40.0,10.0,-100.00,SE,128,8.0,12.0,28,0.00,,,0.00,579.000000,,2013-11-20 17:42:00,
2013-11-20 12:52:00,40.0,10.0,-100.00,SE,128,8.0,12.0,28,0.00,,,0.00,579.000000,,2013-11-20 17:52:00,
2013-11-20 13:02:00,40.0,10.0,-100.00,SE,128,8.0,12.0,28,0.00,,,0.00,579.000000,,2013-11-20 18:02:00,
2013-11-20 13:43:00,45.0,8.0,-100.00,SE,128,6.0,11.0,22,0.00,,,0.00,575.000000,,2013-11-20 18:43:00,
2013-11-20 13:52:00,45.0,8.0,-100.00,SE,128,6.0,11.0,22,0.00,,,0.00,575.000000,,2013-11-20 18:52:00,
2013-11-20 14:02:00,45.0,8.0,-100.00,SE,128,6.0,11.0,22,0.00,,,0.00,575.000000,,2013-11-20 19:02:00,
2013-11-20 14:42:00,44.0,8.0,-100.00,SE,127,7.0,14.0,22,0.00,,,0.00,493.000000,,2013-11-20 19:42:00,
2013-11-20 14:52:00,44.0,8.0,-100.00,SE,127,7.0,14.0,22,0.00,,,0.00,493.000000,,2013-11-20 19:52:00,
2013-11-20 15:01:00,44.0,8.0,-100.00,SE,127,7.0,14.0,22,0.00,,,0.00,493.000000,,2013-11-20 20:01:00,
2013-11-20 15:42:00,43.0,8.0,-100.00,SE,127,7.0,11.0,23,0.00,,,0.00,345.000000,,2013-11-20 20:42:00,
2013-11-20 15:52:00,43.0,8.0,-100.00,SE,127,7.0,11.0,23,0.00,,,0.00,345.000000,,2013-11-20 20:52:00,
2013-11-20 16:02:00,43.0,8.0,-100.00,SE,127,7.0,11.0,23,0.00,,,0.00,345.000000,,2013-11-20 21:02:00,
2013-11-20 16:43:00,40.0,8.0,-100.00,SE,127,7.0,11.0,26,0.00,,,0.00,180.000000,,2013-11-20 21:43:00,
2013-11-20 16:53:00,40.0,8.0,-100.00,SE,127,7.0,11.0,26,0.00,,,0.00,180.000000,,2013-11-20 21:53:00,
2013-11-20 17:03:00,40.0,8.0,-100.00,SE,127,7.0,11.0,26,0.00,,,0.00,180.000000,,2013-11-20 22:03:00,
2013-11-20 17:42:00,37.0,8.0,-100.00,ESE,115,4.0,6.0,30,0.00,,,0.00,27.000000,,2013-11-20 22:42:00,
2013-11-20 17:53:00,37.0,8.0,-100.00,ESE,115,4.0,6.0,30,0.00,,,0.00,27.000000,,2013-11-20 22:53:00,
2013-11-20 18:02:00,37.0,8.0,-100.00,ESE,115,4.0,6.0,30,0.00,,,0.00,27.000000,,2013-11-20 23:02:00,
2013-11-20 18:43:00,34.0,8.0,-100.00,East,98,4.0,6.0,33,0.00,,,0.00,0.000000,,2013-11-20 23:43:00,
2013-11-20 18:53:00,34.0,8.0,-100.00,East,98,4.0,6.0,33,0.00,,,0.00,0.000000,,2013-11-20 23:53:00,
2013-11-20 19:02:00,34.0,8.0,-100.00,East,98,4.0,6.0,33,0.00,,,0.00,0.000000,,2013-11-21 00:02:00,
2013-11-20 19:42:00,33.0,8.0,-100.00,ESE,109,4.0,6.0,35,0.00,,,0.00,0.000000,,2013-11-21 00:42:00,
2013-11-20 19:52:00,33.0,8.0,-100.00,ESE,109,4.0,6.0,35,0.00,,,0.00,0.000000,,2013-11-21 00:52:00,
2013-11-20 20:02:00,33.0,8.0,-100.00,ESE,109,4.0,6.0,35,0.00,,,0.00,0.000000,,2013-11-21 01:02:00,
2013-11-20 20:42:00,33.0,9.0,-100.00,ESE,103,4.0,7.0,36,0.00,,,-99.99,0.000000,,2013-11-21 01:42:00,
2013-11-20 20:52:00,33.0,9.0,-100.00,ESE,103,4.0,7.0,36,0.00,,,-99.99,0.000000,,2013-11-21 01:52:00,
2013-11-20 21:01:00,33.0,9.0,-100.00,ESE,103,4.0,7.0,36,0.00,,,-99.99,0.000000,,2013-11-21 02:01:00,
2013-11-20 21:52:00,31.0,8.0,-100.00,ESE,111,3.0,5.0,38,0.00,,,0.00,0.000000,,2013-11-21 02:52:00,
2013-11-20 22:02:00,31.0,8.0,-100.00,ESE,111,3.0,5.0,38,0.00,,,0.00,0.000000,,2013-11-21 03:02:00,
2013-11-20 22:43:00,31.0,7.0,-100.00,SE,137,4.0,7.0,36,0.00,,,0.00,0.000000,,2013-11-21 03:43:00,
2013-11-20 22:54:00,31.0,7.0,-100.00,SE,137,4.0,7.0,36,0.00,,,0.00,0.000000,,2013-11-21 03:54:00,
2013-11-20 23:03:00,31.0,7.0,-100.00,SE,137,4.0,7.0,36,0.00,,,0.00,0.000000,,2013-11-21 04:03:00,
2013-11-20 23:43:00,32.0,8.0,-100.00,SE,140,6.0,9.0,36,0.00,,,0.00,0.000000,,2013-11-21 04:43:00,
2013-11-20 23:53:00,32.0,8.0,-100.00,SE,140,6.0,9.0,36,0.00,,,0.00,0.000000,,2013-11-21 04:53:00,